Airfield :
LOGIN :

Register | Disclaimer

   EN    FR    IT 

 










Legend :    VFR   Marginal VFR   IFR   Intensive IFR   Very Intensive IFR
Visi :
Ceiling :
>= 8 km
>= 3000ft
5 to 8 km
1000 to 3000 ft
1500m to 5 km
500 to 1000 ft
800 to 1500m
200 to 500 ft
< 800m
< 200 ft
Symbols :   Thunderstorms  Fog  Heavy snow  Heavy precipitations  Wind > 20 kt
SIGMETs :     Misc.  Thunderstorms  Icing  Turbulence  Mountain Waves  Volcanic Ashes







- Airport Elevation : 1325 ft
- IATA code : EBU
- Download approach charts


LFMH - St-Etienne Boutheon

CURRENT METAR :
  • 270830Z AUTO 13006KT 080V180 CAVOK 25/14 Q1010 NOSIG

EXPIRED METARs :
  • 270800Z AUTO 17005KT 110V200 CAVOK 24/14 Q1010 BECMG SCT060TCU
  • 270730Z AUTO 17005KT 130V200 CAVOK 23/14 Q1010 BECMG SCT060TCU
  • 270700Z AUTO 18004KT 120V240 CAVOK 22/14 Q1010 NOSIG
  • 270630Z AUTO 17006KT 140V220 CAVOK 22/14 Q1010 NOSIG
  • 270600Z AUTO 17004KT CAVOK 21/14 Q1010 NOSIG

TAF TAF LFMH
Valid from the 27 at 09:00 until the 28 at 09:00 UTC


270800Z 2709/2809 16005KT CAVOK
TEMPO 2716/2803 3500 SHRA SCT045CB BKN060
PROB30
TEMPO 2719/2723 VRB15G35KT 2500 TSRA BKN030CB BKN050
PROB30
TEMPO 2803/2809 4500 -SHRA SCT030TCU
ATIS : +33 4 77 36 17 51
No reported NOTAMs for that airfield.



MET'MAP, your aeronautical weather chart ! - Copyright ORBIFLY December 2007 - Disclaimer

ORBIFLY MET'MAP TEAM :

Programming & Development : Alexandra Zaïnal
Concept & Development : Baudouin d'Aumeries
Co-Development & Prog : Marc-Olivier Méhu
Technical & hardware support : Manuel Goepfert

Contact : metmap@orbifly.com




SOURCES & CREDITS :

   NOAA